sensor_id;sensor_type;location;lat;lon;timestamp;P1;durP1;ratioP1;P2;durP2;ratioP2
35887;SDS011;21990;42.540;23.496;2023-02-17T00:01:57;79.22;;;33.20;;
35887;SDS011;21990;42.540;23.496;2023-02-17T00:04:23;93.38;;;39.80;;
35887;SDS011;21990;42.540;23.496;2023-02-17T00:06:49;95.10;;;41.20;;
35887;SDS011;21990;42.540;23.496;2023-02-17T00:09:14;76.55;;;34.85;;
35887;SDS011;21990;42.540;23.496;2023-02-17T00:11:41;75.10;;;34.70;;
35887;SDS011;21990;42.540;23.496;2023-02-17T00:14:07;82.35;;;37.63;;
35887;SDS011;21990;42.540;23.496;2023-02-17T00:16:35;76.72;;;34.67;;
35887;SDS011;21990;42.540;23.496;2023-02-17T00:19:01;82.30;;;32.65;;
35887;SDS011;21990;42.540;23.496;2023-02-17T00:21:46;72.00;;;31.48;;
35887;SDS011;21990;42.540;23.496;2023-02-17T00:24:12;82.10;;;35.13;;
35887;SDS011;21990;42.540;23.496;2023-02-17T00:26:37;74.57;;;33.53;;
35887;SDS011;21990;42.540;23.496;2023-02-17T00:29:03;70.85;;;30.10;;
35887;SDS011;21990;42.540;23.496;2023-02-17T00:31:28;69.05;;;30.42;;
35887;SDS011;21990;42.540;23.496;2023-02-17T00:33:54;67.78;;;30.05;;
35887;SDS011;21990;42.540;23.496;2023-02-17T00:36:20;68.30;;;30.65;;
35887;SDS011;21990;42.540;23.496;2023-02-17T00:38:46;80.97;;;36.15;;
35887;SDS011;21990;42.540;23.496;2023-02-17T00:41:13;88.43;;;37.45;;
35887;SDS011;21990;42.540;23.496;2023-02-17T00:43:39;82.25;;;35.10;;
35887;SDS011;21990;42.540;23.496;2023-02-17T00:46:05;73.13;;;32.47;;
35887;SDS011;21990;42.540;23.496;2023-02-17T00:48:30;67.00;;;28.60;;
35887;SDS011;21990;42.540;23.496;2023-02-17T00:50:56;66.60;;;30.77;;
35887;SDS011;21990;42.540;23.496;2023-02-17T00:53:22;68.90;;;28.58;;
35887;SDS011;21990;42.540;23.496;2023-02-17T00:55:47;65.78;;;28.98;;
35887;SDS011;21990;42.540;23.496;2023-02-17T00:58:14;66.45;;;28.50;;
35887;SDS011;21990;42.540;23.496;2023-02-17T01:00:40;67.85;;;31.63;;
35887;SDS011;21990;42.540;23.496;2023-02-17T01:03:05;67.30;;;27.88;;
35887;SDS011;21990;42.540;23.496;2023-02-17T01:05:31;67.95;;;27.95;;
35887;SDS011;21990;42.540;23.496;2023-02-17T01:07:56;62.08;;;28.23;;
35887;SDS011;21990;42.540;23.496;2023-02-17T01:10:22;69.35;;;29.23;;
35887;SDS011;21990;42.540;23.496;2023-02-17T01:12:47;76.72;;;32.97;;
35887;SDS011;21990;42.540;23.496;2023-02-17T01:15:13;77.63;;;33.95;;
35887;SDS011;21990;42.540;23.496;2023-02-17T01:17:39;68.15;;;28.98;;
35887;SDS011;21990;42.540;23.496;2023-02-17T01:20:05;71.28;;;31.85;;
35887;SDS011;21990;42.540;23.496;2023-02-17T01:22:32;72.43;;;29.95;;
35887;SDS011;21990;42.540;23.496;2023-02-17T01:24:58;71.13;;;30.98;;
35887;SDS011;21990;42.540;23.496;2023-02-17T01:27:24;68.65;;;31.13;;
35887;SDS011;21990;42.540;23.496;2023-02-17T01:29:50;65.35;;;29.80;;
35887;SDS011;21990;42.540;23.496;2023-02-17T01:32:15;74.00;;;32.17;;
35887;SDS011;21990;42.540;23.496;2023-02-17T01:34:41;73.25;;;29.25;;
35887;SDS011;21990;42.540;23.496;2023-02-17T01:37:06;66.47;;;29.63;;
35887;SDS011;21990;42.540;23.496;2023-02-17T01:39:32;79.88;;;31.70;;
35887;SDS011;21990;42.540;23.496;2023-02-17T01:41:57;66.90;;;30.33;;
35887;SDS011;21990;42.540;23.496;2023-02-17T01:44:23;63.58;;;27.77;;
35887;SDS011;21990;42.540;23.496;2023-02-17T01:46:51;67.63;;;29.10;;
35887;SDS011;21990;42.540;23.496;2023-02-17T01:52:10;78.97;;;34.88;;
35887;SDS011;21990;42.540;23.496;2023-02-17T01:54:41;73.57;;;31.02;;
35887;SDS011;21990;42.540;23.496;2023-02-17T01:57:11;82.05;;;33.75;;
35887;SDS011;21990;42.540;23.496;2023-02-17T01:59:40;60.03;;;28.08;;
35887;SDS011;21990;42.540;23.496;2023-02-17T02:02:06;69.10;;;30.25;;
35887;SDS011;21990;42.540;23.496;2023-02-17T02:04:34;79.90;;;29.83;;
35887;SDS011;21990;42.540;23.496;2023-02-17T02:07:02;55.78;;;26.58;;
35887;SDS011;21990;42.540;23.496;2023-02-17T02:09:36;62.55;;;27.20;;
35887;SDS011;21990;42.540;23.496;2023-02-17T02:12:17;59.80;;;26.13;;
35887;SDS011;21990;42.540;23.496;2023-02-17T02:14:46;54.30;;;25.30;;
35887;SDS011;21990;42.540;23.496;2023-02-17T02:17:16;55.58;;;23.65;;
35887;SDS011;21990;42.540;23.496;2023-02-17T02:23:00;51.95;;;23.85;;
35887;SDS011;21990;42.540;23.496;2023-02-17T02:26:01;71.15;;;30.33;;
35887;SDS011;21990;42.540;23.496;2023-02-17T02:31:48;55.22;;;24.13;;
35887;SDS011;21990;42.540;23.496;2023-02-17T02:34:20;62.03;;;26.02;;
35887;SDS011;21990;42.540;23.496;2023-02-17T02:36:59;61.40;;;28.55;;
35887;SDS011;21990;42.540;23.496;2023-02-17T02:39:34;61.17;;;26.25;;
35887;SDS011;21990;42.540;23.496;2023-02-17T02:42:05;70.32;;;29.42;;
35887;SDS011;21990;42.540;23.496;2023-02-17T02:44:34;67.88;;;30.83;;
35887;SDS011;21990;42.540;23.496;2023-02-17T02:47:29;77.18;;;32.35;;
35887;SDS011;21990;42.540;23.496;2023-02-17T02:49:56;84.00;;;33.40;;
35887;SDS011;21990;42.540;23.496;2023-02-17T02:52:25;59.88;;;28.13;;
35887;SDS011;21990;42.540;23.496;2023-02-17T02:55:11;68.63;;;27.95;;
35887;SDS011;21990;42.540;23.496;2023-02-17T02:57:53;104.40;;;48.50;;
35887;SDS011;21990;42.540;23.496;2023-02-17T03:00:26;106.75;;;47.75;;
35887;SDS011;21990;42.540;23.496;2023-02-17T03:05:44;79.70;;;35.78;;
35887;SDS011;21990;42.540;23.496;2023-02-17T03:08:34;80.57;;;35.53;;
35887;SDS011;21990;42.540;23.496;2023-02-17T03:11:04;79.07;;;32.10;;
35887;SDS011;21990;42.540;23.496;2023-02-17T03:13:31;78.25;;;34.50;;
35887;SDS011;21990;42.540;23.496;2023-02-17T03:16:03;67.40;;;31.45;;
35887;SDS011;21990;42.540;23.496;2023-02-17T03:18:33;81.78;;;32.85;;
35887;SDS011;21990;42.540;23.496;2023-02-17T03:21:09;66.03;;;28.15;;
35887;SDS011;21990;42.540;23.496;2023-02-17T03:23:39;89.00;;;36.10;;
35887;SDS011;21990;42.540;23.496;2023-02-17T03:26:05;82.65;;;35.30;;
35887;SDS011;21990;42.540;23.496;2023-02-17T03:28:30;81.07;;;35.83;;
35887;SDS011;21990;42.540;23.496;2023-02-17T03:30:56;87.80;;;35.97;;
35887;SDS011;21990;42.540;23.496;2023-02-17T03:33:21;88.07;;;34.55;;
35887;SDS011;21990;42.540;23.496;2023-02-17T03:35:47;89.30;;;37.33;;
35887;SDS011;21990;42.540;23.496;2023-02-17T03:38:12;90.07;;;38.22;;
35887;SDS011;21990;42.540;23.496;2023-02-17T03:40:38;78.95;;;35.22;;
35887;SDS011;21990;42.540;23.496;2023-02-17T03:43:04;76.20;;;31.50;;
35887;SDS011;21990;42.540;23.496;2023-02-17T03:45:29;74.18;;;34.58;;
35887;SDS011;21990;42.540;23.496;2023-02-17T03:47:55;80.53;;;34.33;;
35887;SDS011;21990;42.540;23.496;2023-02-17T03:50:20;89.47;;;36.03;;
35887;SDS011;21990;42.540;23.496;2023-02-17T03:52:46;80.15;;;34.35;;
35887;SDS011;21990;42.540;23.496;2023-02-17T03:55:11;86.50;;;36.60;;
35887;SDS011;21990;42.540;23.496;2023-02-17T03:57:37;81.65;;;35.35;;
35887;SDS011;21990;42.540;23.496;2023-02-17T04:00:03;75.88;;;33.00;;
35887;SDS011;21990;42.540;23.496;2023-02-17T04:02:30;84.00;;;34.22;;
35887;SDS011;21990;42.540;23.496;2023-02-17T04:04:56;83.20;;;33.35;;
35887;SDS011;21990;42.540;23.496;2023-02-17T04:07:21;85.40;;;36.30;;
35887;SDS011;21990;42.540;23.496;2023-02-17T04:09:47;119.38;;;46.88;;
35887;SDS011;21990;42.540;23.496;2023-02-17T04:12:12;93.18;;;37.88;;
35887;SDS011;21990;42.540;23.496;2023-02-17T04:14:38;87.30;;;36.08;;
35887;SDS011;21990;42.540;23.496;2023-02-17T04:17:03;107.45;;;43.45;;
35887;SDS011;21990;42.540;23.496;2023-02-17T04:19:29;111.43;;;45.53;;
35887;SDS011;21990;42.540;23.496;2023-02-17T04:21:54;90.70;;;38.20;;
35887;SDS011;21990;42.540;23.496;2023-02-17T04:24:20;96.03;;;37.85;;
35887;SDS011;21990;42.540;23.496;2023-02-17T04:26:45;89.78;;;35.72;;
35887;SDS011;21990;42.540;23.496;2023-02-17T04:29:11;90.40;;;36.13;;
35887;SDS011;21990;42.540;23.496;2023-02-17T04:31:36;97.68;;;35.28;;
35887;SDS011;21990;42.540;23.496;2023-02-17T04:34:02;109.90;;;42.63;;
35887;SDS011;21990;42.540;23.496;2023-02-17T04:36:27;122.57;;;49.88;;
35887;SDS011;21990;42.540;23.496;2023-02-17T04:38:53;114.88;;;48.30;;
35887;SDS011;21990;42.540;23.496;2023-02-17T04:41:19;110.22;;;42.80;;
35887;SDS011;21990;42.540;23.496;2023-02-17T04:43:44;104.32;;;42.75;;
35887;SDS011;21990;42.540;23.496;2023-02-17T04:46:10;96.57;;;39.17;;
35887;SDS011;21990;42.540;23.496;2023-02-17T04:48:36;93.93;;;37.83;;
35887;SDS011;21990;42.540;23.496;2023-02-17T04:51:01;98.85;;;41.72;;
35887;SDS011;21990;42.540;23.496;2023-02-17T04:53:27;103.05;;;43.22;;
35887;SDS011;21990;42.540;23.496;2023-02-17T04:55:53;113.07;;;45.78;;
35887;SDS011;21990;42.540;23.496;2023-02-17T04:58:18;137.95;;;54.85;;
35887;SDS011;21990;42.540;23.496;2023-02-17T05:00:45;152.75;;;67.00;;
35887;SDS011;21990;42.540;23.496;2023-02-17T05:03:12;136.88;;;56.13;;
35887;SDS011;21990;42.540;23.496;2023-02-17T05:05:38;122.35;;;51.72;;
35887;SDS011;21990;42.540;23.496;2023-02-17T05:08:03;147.25;;;57.80;;
35887;SDS011;21990;42.540;23.496;2023-02-17T05:10:29;149.25;;;61.90;;
35887;SDS011;21990;42.540;23.496;2023-02-17T05:12:55;124.30;;;51.90;;
35887;SDS011;21990;42.540;23.496;2023-02-17T05:15:20;128.90;;;54.40;;
35887;SDS011;21990;42.540;23.496;2023-02-17T05:17:46;127.43;;;50.35;;
35887;SDS011;21990;42.540;23.496;2023-02-17T05:20:12;113.85;;;47.40;;
35887;SDS011;21990;42.540;23.496;2023-02-17T05:22:37;106.15;;;45.60;;
35887;SDS011;21990;42.540;23.496;2023-02-17T05:25:03;139.73;;;57.35;;
35887;SDS011;21990;42.540;23.496;2023-02-17T05:27:29;139.98;;;56.78;;
35887;SDS011;21990;42.540;23.496;2023-02-17T05:29:54;134.98;;;55.45;;
35887;SDS011;21990;42.540;23.496;2023-02-17T05:32:21;167.75;;;69.82;;
35887;SDS011;21990;42.540;23.496;2023-02-17T05:34:47;146.38;;;60.83;;
35887;SDS011;21990;42.540;23.496;2023-02-17T05:37:12;150.65;;;64.05;;
35887;SDS011;21990;42.540;23.496;2023-02-17T05:39:38;179.27;;;73.32;;
35887;SDS011;21990;42.540;23.496;2023-02-17T05:42:03;150.73;;;62.35;;
35887;SDS011;21990;42.540;23.496;2023-02-17T05:44:29;153.68;;;65.55;;
35887;SDS011;21990;42.540;23.496;2023-02-17T05:46:55;178.00;;;72.55;;
35887;SDS011;21990;42.540;23.496;2023-02-17T05:49:20;175.52;;;73.38;;
35887;SDS011;21990;42.540;23.496;2023-02-17T05:51:46;179.75;;;75.85;;
35887;SDS011;21990;42.540;23.496;2023-02-17T05:54:11;284.40;;;113.32;;
35887;SDS011;21990;42.540;23.496;2023-02-17T05:56:37;182.88;;;75.97;;
35887;SDS011;21990;42.540;23.496;2023-02-17T05:59:02;186.18;;;78.10;;
35887;SDS011;21990;42.540;23.496;2023-02-17T06:01:28;207.65;;;88.45;;
35887;SDS011;21990;42.540;23.496;2023-02-17T06:03:53;196.60;;;86.80;;
35887;SDS011;21990;42.540;23.496;2023-02-17T06:06:19;198.38;;;84.78;;
35887;SDS011;21990;42.540;23.496;2023-02-17T06:08:45;206.85;;;92.32;;
35887;SDS011;21990;42.540;23.496;2023-02-17T06:11:10;167.43;;;72.07;;
35887;SDS011;21990;42.540;23.496;2023-02-17T06:13:36;161.80;;;70.43;;
35887;SDS011;21990;42.540;23.496;2023-02-17T06:16:01;179.05;;;77.47;;
35887;SDS011;21990;42.540;23.496;2023-02-17T06:18:27;198.13;;;86.03;;
35887;SDS011;21990;42.540;23.496;2023-02-17T06:20:56;198.23;;;88.68;;
35887;SDS011;21990;42.540;23.496;2023-02-17T06:23:22;154.35;;;64.55;;
35887;SDS011;21990;42.540;23.496;2023-02-17T06:25:48;157.52;;;66.90;;
35887;SDS011;21990;42.540;23.496;2023-02-17T06:28:14;188.07;;;80.95;;
35887;SDS011;21990;42.540;23.496;2023-02-17T06:30:39;142.50;;;64.05;;
35887;SDS011;21990;42.540;23.496;2023-02-17T06:33:05;137.73;;;63.67;;
35887;SDS011;21990;42.540;23.496;2023-02-17T06:35:30;118.05;;;54.95;;
35887;SDS011;21990;42.540;23.496;2023-02-17T06:37:56;136.73;;;57.55;;
35887;SDS011;21990;42.540;23.496;2023-02-17T06:40:22;90.70;;;42.08;;
35887;SDS011;21990;42.540;23.496;2023-02-17T06:42:48;65.65;;;32.72;;
35887;SDS011;21990;42.540;23.496;2023-02-17T06:45:13;133.27;;;60.53;;
35887;SDS011;21990;42.540;23.496;2023-02-17T06:47:39;90.95;;;41.60;;
35887;SDS011;21990;42.540;23.496;2023-02-17T06:50:04;80.07;;;35.58;;
35887;SDS011;21990;42.540;23.496;2023-02-17T06:52:31;101.40;;;44.60;;
35887;SDS011;21990;42.540;23.496;2023-02-17T06:54:56;75.82;;;36.45;;
35887;SDS011;21990;42.540;23.496;2023-02-17T06:57:22;51.65;;;25.25;;
35887;SDS011;21990;42.540;23.496;2023-02-17T06:59:47;112.53;;;56.13;;
35887;SDS011;21990;42.540;23.496;2023-02-17T07:02:13;65.40;;;34.58;;
35887;SDS011;21990;42.540;23.496;2023-02-17T07:04:39;51.00;;;26.38;;
35887;SDS011;21990;42.540;23.496;2023-02-17T07:07:05;51.38;;;26.02;;
35887;SDS011;21990;42.540;23.496;2023-02-17T07:09:32;55.67;;;28.05;;
35887;SDS011;21990;42.540;23.496;2023-02-17T07:11:57;40.65;;;21.30;;
35887;SDS011;21990;42.540;23.496;2023-02-17T07:14:24;49.58;;;26.05;;
35887;SDS011;21990;42.540;23.496;2023-02-17T07:16:50;47.85;;;24.42;;
35887;SDS011;21990;42.540;23.496;2023-02-17T07:19:16;38.90;;;19.85;;
35887;SDS011;21990;42.540;23.496;2023-02-17T07:21:41;41.28;;;22.02;;
35887;SDS011;21990;42.540;23.496;2023-02-17T07:24:07;41.92;;;22.17;;
35887;SDS011;21990;42.540;23.496;2023-02-17T07:26:37;40.97;;;21.48;;
35887;SDS011;21990;42.540;23.496;2023-02-17T07:29:04;39.20;;;21.63;;
35887;SDS011;21990;42.540;23.496;2023-02-17T07:31:30;35.47;;;18.63;;
35887;SDS011;21990;42.540;23.496;2023-02-17T07:33:56;34.17;;;19.60;;
35887;SDS011;21990;42.540;23.496;2023-02-17T07:36:22;38.20;;;21.10;;
35887;SDS011;21990;42.540;23.496;2023-02-17T07:38:48;40.72;;;22.70;;
35887;SDS011;21990;42.540;23.496;2023-02-17T07:41:14;60.35;;;27.63;;
35887;SDS011;21990;42.540;23.496;2023-02-17T07:43:41;48.20;;;26.65;;
35887;SDS011;21990;42.540;23.496;2023-02-17T07:46:07;37.67;;;20.88;;
35887;SDS011;21990;42.540;23.496;2023-02-17T07:48:34;39.15;;;19.98;;
35887;SDS011;21990;42.540;23.496;2023-02-17T07:51:19;54.72;;;27.58;;
35887;SDS011;21990;42.540;23.496;2023-02-17T07:53:46;68.25;;;33.22;;
35887;SDS011;21990;42.540;23.496;2023-02-17T07:56:14;56.53;;;28.23;;
35887;SDS011;21990;42.540;23.496;2023-02-17T07:58:40;52.92;;;28.10;;
35887;SDS011;21990;42.540;23.496;2023-02-17T08:03:40;43.88;;;24.05;;
35887;SDS011;21990;42.540;23.496;2023-02-17T08:06:10;41.35;;;22.13;;
35887;SDS011;21990;42.540;23.496;2023-02-17T08:08:39;45.63;;;22.77;;
35887;SDS011;21990;42.540;23.496;2023-02-17T08:11:24;36.50;;;19.00;;
35887;SDS011;21990;42.540;23.496;2023-02-17T08:14:08;37.38;;;17.77;;
35887;SDS011;21990;42.540;23.496;2023-02-17T08:16:33;38.75;;;19.42;;
35887;SDS011;21990;42.540;23.496;2023-02-17T08:18:59;38.28;;;19.08;;
35887;SDS011;21990;42.540;23.496;2023-02-17T08:21:25;37.70;;;19.33;;
35887;SDS011;21990;42.540;23.496;2023-02-17T08:23:51;39.13;;;20.63;;
35887;SDS011;21990;42.540;23.496;2023-02-17T08:26:17;36.58;;;19.50;;
35887;SDS011;21990;42.540;23.496;2023-02-17T08:28:43;43.97;;;22.85;;
35887;SDS011;21990;42.540;23.496;2023-02-17T08:31:16;50.35;;;23.63;;
35887;SDS011;21990;42.540;23.496;2023-02-17T08:33:43;47.95;;;25.02;;
35887;SDS011;21990;42.540;23.496;2023-02-17T08:36:09;56.92;;;29.20;;
35887;SDS011;21990;42.540;23.496;2023-02-17T08:38:35;59.63;;;29.65;;
35887;SDS011;21990;42.540;23.496;2023-02-17T08:41:00;55.60;;;29.17;;
35887;SDS011;21990;42.540;23.496;2023-02-17T08:43:26;55.80;;;28.55;;
35887;SDS011;21990;42.540;23.496;2023-02-17T08:45:51;56.88;;;29.38;;
35887;SDS011;21990;42.540;23.496;2023-02-17T08:48:17;63.17;;;28.17;;
35887;SDS011;21990;42.540;23.496;2023-02-17T08:50:45;51.00;;;27.25;;
35887;SDS011;21990;42.540;23.496;2023-02-17T08:53:11;53.28;;;27.58;;
35887;SDS011;21990;42.540;23.496;2023-02-17T08:55:37;48.38;;;25.08;;
35887;SDS011;21990;42.540;23.496;2023-02-17T08:58:02;52.00;;;25.25;;
35887;SDS011;21990;42.540;23.496;2023-02-17T09:00:28;44.15;;;21.58;;
35887;SDS011;21990;42.540;23.496;2023-02-17T09:02:53;38.85;;;17.65;;
35887;SDS011;21990;42.540;23.496;2023-02-17T09:05:19;24.23;;;10.30;;
35887;SDS011;21990;42.540;23.496;2023-02-17T09:07:44;28.30;;;12.38;;
35887;SDS011;21990;42.540;23.496;2023-02-17T09:10:10;17.17;;;8.15;;
35887;SDS011;21990;42.540;23.496;2023-02-17T09:12:36;20.58;;;9.77;;
35887;SDS011;21990;42.540;23.496;2023-02-17T09:15:02;21.88;;;10.02;;
35887;SDS011;21990;42.540;23.496;2023-02-17T09:17:28;24.38;;;9.73;;
35887;SDS011;21990;42.540;23.496;2023-02-17T09:19:53;63.55;;;28.25;;
35887;SDS011;21990;42.540;23.496;2023-02-17T09:22:19;70.90;;;32.95;;
35887;SDS011;21990;42.540;23.496;2023-02-17T09:24:45;97.88;;;43.05;;
35887;SDS011;21990;42.540;23.496;2023-02-17T09:27:11;52.85;;;23.20;;
35887;SDS011;21990;42.540;23.496;2023-02-17T09:29:38;16.90;;;9.10;;
35887;SDS011;21990;42.540;23.496;2023-02-17T09:32:07;28.48;;;9.77;;
35887;SDS011;21990;42.540;23.496;2023-02-17T09:34:37;24.80;;;9.52;;
35887;SDS011;21990;42.540;23.496;2023-02-17T09:37:08;29.95;;;9.98;;
35887;SDS011;21990;42.540;23.496;2023-02-17T09:39:36;22.98;;;9.63;;
35887;SDS011;21990;42.540;23.496;2023-02-17T09:42:01;24.77;;;10.10;;
35887;SDS011;21990;42.540;23.496;2023-02-17T09:44:31;24.17;;;9.38;;
35887;SDS011;21990;42.540;23.496;2023-02-17T09:47:19;23.65;;;9.25;;
35887;SDS011;21990;42.540;23.496;2023-02-17T09:50:07;16.73;;;8.55;;
35887;SDS011;21990;42.540;23.496;2023-02-17T09:53:00;22.75;;;9.20;;
35887;SDS011;21990;42.540;23.496;2023-02-17T09:55:40;21.05;;;8.57;;
35887;SDS011;21990;42.540;23.496;2023-02-17T09:58:16;14.77;;;7.40;;
35887;SDS011;21990;42.540;23.496;2023-02-17T10:00:50;20.35;;;8.77;;
35887;SDS011;21990;42.540;23.496;2023-02-17T10:06:04;26.15;;;9.20;;
35887;SDS011;21990;42.540;23.496;2023-02-17T10:12:00;21.67;;;8.40;;
35887;SDS011;21990;42.540;23.496;2023-02-17T10:14:43;22.55;;;9.05;;
35887;SDS011;21990;42.540;23.496;2023-02-17T10:19:52;22.77;;;9.25;;
35887;SDS011;21990;42.540;23.496;2023-02-17T10:22:31;19.15;;;8.82;;
35887;SDS011;21990;42.540;23.496;2023-02-17T10:24:58;21.30;;;8.15;;
35887;SDS011;21990;42.540;23.496;2023-02-17T10:27:36;31.05;;;9.00;;
35887;SDS011;21990;42.540;23.496;2023-02-17T10:35:26;25.20;;;10.05;;
35887;SDS011;21990;42.540;23.496;2023-02-17T10:40:56;31.70;;;10.70;;
35887;SDS011;21990;42.540;23.496;2023-02-17T10:43:25;21.45;;;8.90;;
35887;SDS011;21990;42.540;23.496;2023-02-17T10:45:56;28.27;;;9.35;;
35887;SDS011;21990;42.540;23.496;2023-02-17T10:49:09;19.33;;;8.55;;
35887;SDS011;21990;42.540;23.496;2023-02-17T10:51:15;19.23;;;8.77;;
35887;SDS011;21990;42.540;23.496;2023-02-17T10:53:47;26.05;;;8.45;;
35887;SDS011;21990;42.540;23.496;2023-02-17T10:56:19;23.88;;;8.77;;
35887;SDS011;21990;42.540;23.496;2023-02-17T11:01:40;16.73;;;7.20;;
35887;SDS011;21990;42.540;23.496;2023-02-17T11:04:07;18.65;;;7.50;;
35887;SDS011;21990;42.540;23.496;2023-02-17T11:06:35;15.90;;;7.00;;
35887;SDS011;21990;42.540;23.496;2023-02-17T11:09:14;25.15;;;7.60;;
35887;SDS011;21990;42.540;23.496;2023-02-17T11:11:57;13.35;;;6.85;;
35887;SDS011;21990;42.540;23.496;2023-02-17T11:14:25;22.52;;;7.47;;
35887;SDS011;21990;42.540;23.496;2023-02-17T11:21:53;16.00;;;6.70;;
35887;SDS011;21990;42.540;23.496;2023-02-17T11:24:20;14.93;;;5.50;;
35887;SDS011;21990;42.540;23.496;2023-02-17T11:26:55;20.92;;;5.32;;
35887;SDS011;21990;42.540;23.496;2023-02-17T11:29:35;14.77;;;5.43;;
35887;SDS011;21990;42.540;23.496;2023-02-17T11:32:05;18.08;;;7.07;;
35887;SDS011;21990;42.540;23.496;2023-02-17T11:34:36;20.90;;;10.73;;
35887;SDS011;21990;42.540;23.496;2023-02-17T11:39:39;25.58;;;11.48;;
35887;SDS011;21990;42.540;23.496;2023-02-17T11:42:40;23.20;;;9.85;;
35887;SDS011;21990;42.540;23.496;2023-02-17T11:45:00;18.40;;;6.07;;
35887;SDS011;21990;42.540;23.496;2023-02-17T11:48:02;27.08;;;14.73;;
35887;SDS011;21990;42.540;23.496;2023-02-17T11:50:50;9.50;;;5.30;;
35887;SDS011;21990;42.540;23.496;2023-02-17T11:56:16;14.10;;;5.30;;
35887;SDS011;21990;42.540;23.496;2023-02-17T12:04:26;11.70;;;4.70;;
35887;SDS011;21990;42.540;23.496;2023-02-17T12:10:04;18.42;;;5.15;;
35887;SDS011;21990;42.540;23.496;2023-02-17T12:13:14;13.52;;;5.30;;
35887;SDS011;21990;42.540;23.496;2023-02-17T12:17:55;10.18;;;4.57;;
35887;SDS011;21990;42.540;23.496;2023-02-17T12:20:37;14.95;;;7.20;;
35887;SDS011;21990;42.540;23.496;2023-02-17T12:25:30;39.42;;;18.45;;
35887;SDS011;21990;42.540;23.496;2023-02-17T12:30:57;26.63;;;9.93;;
35887;SDS011;21990;42.540;23.496;2023-02-17T12:36:22;55.60;;;27.02;;
35887;SDS011;21990;42.540;23.496;2023-02-17T12:39:25;116.32;;;47.70;;
35887;SDS011;21990;42.540;23.496;2023-02-17T12:41:58;268.85;;;95.40;;
35887;SDS011;21990;42.540;23.496;2023-02-17T12:44:38;67.18;;;24.75;;
35887;SDS011;21990;42.540;23.496;2023-02-17T12:47:14;35.35;;;12.15;;
35887;SDS011;21990;42.540;23.496;2023-02-17T12:52:35;36.88;;;13.38;;
35887;SDS011;21990;42.540;23.496;2023-02-17T12:55:19;14.27;;;5.75;;
35887;SDS011;21990;42.540;23.496;2023-02-17T12:57:55;22.52;;;9.60;;
35887;SDS011;21990;42.540;23.496;2023-02-17T13:03:06;18.90;;;6.63;;
35887;SDS011;21990;42.540;23.496;2023-02-17T13:05:43;20.58;;;10.32;;
35887;SDS011;21990;42.540;23.496;2023-02-17T13:08:17;20.98;;;7.65;;
35887;SDS011;21990;42.540;23.496;2023-02-17T13:11:02;17.65;;;5.13;;
35887;SDS011;21990;42.540;23.496;2023-02-17T13:13:35;13.45;;;5.22;;
35887;SDS011;21990;42.540;23.496;2023-02-17T13:16:02;9.85;;;4.90;;
35887;SDS011;21990;42.540;23.496;2023-02-17T13:18:39;15.80;;;5.10;;
35887;SDS011;21990;42.540;23.496;2023-02-17T13:26:41;16.48;;;6.68;;
35887;SDS011;21990;42.540;23.496;2023-02-17T13:29:10;17.25;;;5.30;;
35887;SDS011;21990;42.540;23.496;2023-02-17T13:32:01;14.60;;;5.20;;
35887;SDS011;21990;42.540;23.496;2023-02-17T13:36:57;12.18;;;5.63;;
35887;SDS011;21990;42.540;23.496;2023-02-17T13:41:50;19.13;;;8.15;;
35887;SDS011;21990;42.540;23.496;2023-02-17T13:44:19;14.18;;;7.07;;
35887;SDS011;21990;42.540;23.496;2023-02-17T13:46:55;11.60;;;5.80;;
35887;SDS011;21990;42.540;23.496;2023-02-17T13:49:25;14.27;;;5.72;;
35887;SDS011;21990;42.540;23.496;2023-02-17T13:51:53;15.18;;;6.43;;
35887;SDS011;21990;42.540;23.496;2023-02-17T13:54:20;16.52;;;7.00;;
35887;SDS011;21990;42.540;23.496;2023-02-17T13:56:51;19.48;;;6.38;;
35887;SDS011;21990;42.540;23.496;2023-02-17T13:59:23;12.48;;;5.65;;
35887;SDS011;21990;42.540;23.496;2023-02-17T14:01:50;14.43;;;7.47;;
35887;SDS011;21990;42.540;23.496;2023-02-17T14:04:21;18.27;;;8.13;;
35887;SDS011;21990;42.540;23.496;2023-02-17T14:06:51;19.05;;;5.88;;
35887;SDS011;21990;42.540;23.496;2023-02-17T14:09:26;16.75;;;6.13;;
35887;SDS011;21990;42.540;23.496;2023-02-17T14:11:55;20.38;;;7.90;;
35887;SDS011;21990;42.540;23.496;2023-02-17T14:14:28;27.08;;;5.97;;
35887;SDS011;21990;42.540;23.496;2023-02-17T14:17:00;18.65;;;6.60;;
35887;SDS011;21990;42.540;23.496;2023-02-17T14:19:31;26.23;;;12.05;;
35887;SDS011;21990;42.540;23.496;2023-02-17T14:25:04;22.40;;;6.32;;
35887;SDS011;21990;42.540;23.496;2023-02-17T14:27:42;14.50;;;5.25;;
35887;SDS011;21990;42.540;23.496;2023-02-17T14:30:13;13.95;;;6.90;;
35887;SDS011;21990;42.540;23.496;2023-02-17T14:32:39;21.75;;;8.68;;
35887;SDS011;21990;42.540;23.496;2023-02-17T14:35:23;25.02;;;12.60;;
35887;SDS011;21990;42.540;23.496;2023-02-17T14:37:49;17.70;;;7.88;;
35887;SDS011;21990;42.540;23.496;2023-02-17T14:40:20;14.13;;;5.88;;
35887;SDS011;21990;42.540;23.496;2023-02-17T14:42:47;83.40;;;36.92;;
35887;SDS011;21990;42.540;23.496;2023-02-17T14:45:14;21.73;;;9.65;;
35887;SDS011;21990;42.540;23.496;2023-02-17T14:47:40;21.95;;;10.00;;
35887;SDS011;21990;42.540;23.496;2023-02-17T14:50:07;31.58;;;14.07;;
35887;SDS011;21990;42.540;23.496;2023-02-17T14:52:45;33.40;;;11.90;;
35887;SDS011;21990;42.540;23.496;2023-02-17T14:55:15;11.20;;;6.10;;
35887;SDS011;21990;42.540;23.496;2023-02-17T14:57:49;29.08;;;13.82;;
35887;SDS011;21990;42.540;23.496;2023-02-17T15:00:15;12.65;;;7.40;;
35887;SDS011;21990;42.540;23.496;2023-02-17T15:02:41;22.30;;;10.00;;
35887;SDS011;21990;42.540;23.496;2023-02-17T15:05:06;19.70;;;8.82;;
35887;SDS011;21990;42.540;23.496;2023-02-17T15:07:32;15.45;;;6.38;;
35887;SDS011;21990;42.540;23.496;2023-02-17T15:09:57;17.90;;;6.70;;
35887;SDS011;21990;42.540;23.496;2023-02-17T15:12:23;26.10;;;11.50;;
35887;SDS011;21990;42.540;23.496;2023-02-17T15:14:49;16.17;;;6.93;;
35887;SDS011;21990;42.540;23.496;2023-02-17T15:17:15;38.33;;;17.95;;
35887;SDS011;21990;42.540;23.496;2023-02-17T15:19:40;24.17;;;10.23;;
35887;SDS011;21990;42.540;23.496;2023-02-17T15:22:10;17.88;;;7.22;;
35887;SDS011;21990;42.540;23.496;2023-02-17T15:24:37;17.20;;;7.57;;
35887;SDS011;21990;42.540;23.496;2023-02-17T15:27:03;37.67;;;17.95;;
35887;SDS011;21990;42.540;23.496;2023-02-17T15:29:30;19.27;;;10.55;;
35887;SDS011;21990;42.540;23.496;2023-02-17T15:31:57;38.17;;;10.90;;
35887;SDS011;21990;42.540;23.496;2023-02-17T15:34:25;48.05;;;21.33;;
35887;SDS011;21990;42.540;23.496;2023-02-17T15:36:59;27.67;;;10.80;;
35887;SDS011;21990;42.540;23.496;2023-02-17T15:39:25;58.75;;;22.63;;
35887;SDS011;21990;42.540;23.496;2023-02-17T15:41:52;31.00;;;8.60;;
35887;SDS011;21990;42.540;23.496;2023-02-17T15:44:20;27.45;;;6.60;;
35887;SDS011;21990;42.540;23.496;2023-02-17T15:46:51;25.95;;;13.20;;